createdAt,value
2023-05-09T00:04:30.312Z,4.10
2023-05-09T00:09:31.973Z,3.67
2023-05-09T00:14:33.749Z,4.15
2023-05-09T00:19:35.375Z,4.07
2023-05-09T00:24:37.033Z,3.65
2023-05-09T00:29:38.938Z,3.67
2023-05-09T00:34:40.584Z,3.95
2023-05-09T00:39:42.220Z,3.85
2023-05-09T00:44:43.889Z,3.88
2023-05-09T00:49:45.725Z,4.53
2023-05-09T00:54:47.432Z,5.15
2023-05-09T00:59:49.163Z,4.00
2023-05-09T01:04:50.877Z,3.58
2023-05-09T01:10:14.217Z,4.00
2023-05-09T01:15:31.289Z,4.47
2023-05-09T01:20:41.069Z,3.78
2023-05-09T01:26:26.207Z,4.07
2023-05-09T01:31:28.827Z,4.38
2023-05-09T01:36:33.103Z,3.47
2023-05-09T01:41:37.570Z,2.63
2023-05-09T01:46:39.914Z,4.65
2023-05-09T01:51:43.969Z,3.65
2023-05-09T01:56:47.210Z,4.68
2023-05-09T02:01:49.857Z,3.90
2023-05-09T02:06:52.158Z,4.55
2023-05-09T02:11:54.336Z,3.88
2023-05-09T02:16:57.695Z,4.53
2023-05-09T02:21:59.420Z,4.82
2023-05-09T02:27:03.016Z,4.40
2023-05-09T02:32:10.191Z,4.30
2023-05-09T02:37:13.662Z,3.72
2023-05-09T02:42:21.251Z,2.97
2023-05-09T02:47:23.230Z,4.22
2023-05-09T02:52:24.996Z,5.60
2023-05-09T02:57:26.881Z,4.22
2023-05-09T03:02:28.623Z,4.55
2023-05-09T03:07:30.853Z,3.85
2023-05-09T03:12:33.520Z,4.05
2023-05-09T03:17:35.574Z,4.13
2023-05-09T03:22:37.346Z,4.28
2023-05-09T03:27:41.637Z,4.97
2023-05-09T03:32:49.296Z,4.20
2023-05-09T03:37:51.274Z,4.28
2023-05-09T03:42:53.201Z,4.18
2023-05-09T03:47:55.301Z,4.28
2023-05-09T03:52:57.147Z,3.63
2023-05-09T03:57:59.004Z,4.50
2023-05-09T04:03:00.992Z,4.32
2023-05-09T04:08:08.820Z,4.30
2023-05-09T04:13:11.288Z,3.78
2023-05-09T04:18:13.627Z,2.58
2023-05-09T04:23:15.551Z,3.92
2023-05-09T04:28:17.760Z,3.92
2023-05-09T04:33:20.168Z,3.70
2023-05-09T04:38:23.105Z,3.83
2023-05-09T04:43:27.927Z,3.58
2023-05-09T04:48:29.709Z,2.20
2023-05-09T04:53:32.015Z,3.50
2023-05-09T04:58:38.400Z,3.50
2023-05-09T05:03:44.177Z,3.40
2023-05-09T05:08:46.099Z,2.65
2023-05-09T05:13:47.823Z,4.05
2023-05-09T05:18:49.599Z,2.72
2023-05-09T05:23:52.754Z,1.95
2023-05-09T05:28:57.129Z,3.25
2023-05-09T05:34:00.477Z,3.58
2023-05-09T05:39:02.610Z,2.65
2023-05-09T05:44:04.495Z,1.85
2023-05-09T05:49:06.972Z,2.08
2023-05-09T05:54:09.349Z,1.77
2023-05-09T05:59:13.409Z,2.13
2023-05-09T06:04:15.775Z,2.97
2023-05-09T06:09:17.544Z,2.03
2023-05-09T06:14:19.683Z,2.80
2023-05-09T06:19:21.534Z,3.17
2023-05-09T06:24:34.352Z,3.17
2023-05-09T06:29:38.413Z,3.50
2023-05-09T06:34:42.129Z,2.50
2023-05-09T06:39:43.799Z,2.60
2023-05-09T06:44:45.498Z,1.92
2023-05-09T06:49:47.184Z,3.30
2023-05-09T06:54:48.838Z,2.80
2023-05-09T06:59:50.721Z,2.03
2023-05-09T07:04:52.426Z,2.38
2023-05-09T07:10:00.617Z,2.30
2023-05-09T07:15:09.880Z,2.38
2023-05-09T07:20:11.656Z,2.80
2023-05-09T07:25:13.725Z,3.28
2023-05-09T07:30:15.907Z,2.88
2023-05-09T07:35:19.200Z,2.40
2023-05-09T07:40:20.889Z,2.70
2023-05-09T07:45:23.927Z,2.60
2023-05-09T07:50:26.302Z,3.10
2023-05-09T07:55:27.944Z,3.17
2023-05-09T08:00:29.598Z,2.85
2023-05-09T08:05:31.268Z,2.30
2023-05-09T08:10:33.687Z,2.78
2023-05-09T08:15:35.405Z,2.80
2023-05-09T08:20:37.452Z,3.00
2023-05-09T08:25:39.204Z,2.72
2023-05-09T08:30:41.191Z,2.53
2023-05-09T08:35:43.505Z,2.65
2023-05-09T08:40:45.300Z,2.17
2023-05-09T08:45:51.402Z,2.58
2023-05-09T08:55:54.740Z,2.63
2023-05-09T09:00:56.544Z,3.00
2023-05-09T09:05:58.488Z,2.40
2023-05-09T09:11:00.461Z,2.67
2023-05-09T09:16:02.267Z,2.47
2023-05-09T09:21:10.376Z,2.42
2023-05-09T09:26:12.042Z,1.55
2023-05-09T09:31:24.123Z,2.25
2023-05-09T09:41:39.465Z,2.65
2023-05-09T09:46:46.405Z,2.78
2023-05-09T09:51:55.128Z,2.30
2023-05-09T09:56:56.980Z,2.70
2023-05-09T10:02:07.552Z,2.38
2023-05-09T10:07:13.843Z,2.25
2023-05-09T10:12:19.706Z,2.65
2023-05-09T10:17:22.742Z,2.50
2023-05-09T10:22:24.961Z,2.10
2023-05-09T10:27:27.941Z,2.45
2023-05-09T10:32:48.439Z,1.50
2023-05-09T10:37:50.190Z,2.55
2023-05-09T10:42:51.857Z,2.65
2023-05-09T10:47:54.082Z,2.40
2023-05-09T10:53:05.067Z,2.78
2023-05-09T10:58:27.948Z,2.00
2023-05-09T11:03:53.222Z,2.05
2023-05-09T11:08:54.980Z,2.50
2023-05-09T11:13:58.145Z,1.92
2023-05-09T11:18:59.760Z,1.50
2023-05-09T11:24:16.461Z,2.58
2023-05-09T11:29:18.151Z,1.40
2023-05-09T11:34:20.049Z,2.05
2023-05-09T11:39:25.357Z,1.80
2023-05-09T11:44:28.157Z,2.00
2023-05-09T11:49:29.850Z,1.35
2023-05-09T11:54:31.643Z,2.35
2023-05-09T11:59:36.710Z,1.25
2023-05-09T12:04:38.921Z,1.05
2023-05-09T12:09:40.793Z,0.90
2023-05-09T12:14:42.619Z,1.05
2023-05-09T12:19:44.422Z,1.27
2023-05-09T12:24:46.084Z,1.10
2023-05-09T12:29:48.302Z,1.20
2023-05-09T12:34:51.539Z,1.20
2023-05-09T12:40:15.588Z,1.23
2023-05-09T12:45:18.368Z,1.33
2023-05-09T12:50:20.306Z,2.00
2023-05-09T12:55:22.023Z,1.88
2023-05-09T13:00:23.829Z,1.02
2023-05-09T13:05:25.501Z,1.33
2023-05-09T13:10:29.043Z,1.00
2023-05-09T13:15:30.798Z,2.38
2023-05-09T13:20:32.565Z,2.05
2023-05-09T13:25:34.254Z,1.98
2023-05-09T13:30:36.134Z,2.45
2023-05-09T13:35:37.764Z,4.00
2023-05-09T13:40:39.471Z,2.22
2023-05-09T13:45:41.280Z,1.30
2023-05-09T13:50:42.982Z,2.15
2023-05-09T13:55:45.615Z,2.05
2023-05-09T14:00:47.388Z,2.03
2023-05-09T14:05:49.543Z,1.90
2023-05-09T14:10:51.321Z,2.78
2023-05-09T14:15:53.222Z,1.83
2023-05-09T14:20:55.088Z,2.63
2023-05-09T14:25:57.359Z,2.13
2023-05-09T14:30:59.163Z,2.60
2023-05-09T14:36:02.833Z,2.90
2023-05-09T14:41:05.075Z,2.50
2023-05-09T14:46:06.883Z,3.13
2023-05-09T14:51:08.741Z,2.20
2023-05-09T14:56:11.725Z,2.15
2023-05-09T15:01:13.413Z,2.55
2023-05-09T15:06:15.525Z,2.88
2023-05-09T15:11:17.267Z,1.63
2023-05-09T15:16:19.592Z,2.28
2023-05-09T15:21:21.352Z,2.50
2023-05-09T15:26:23.024Z,2.10
2023-05-09T15:31:25.583Z,2.72
2023-05-09T15:36:30.091Z,2.40
2023-05-09T15:41:32.218Z,2.35
2023-05-09T15:46:34.140Z,1.90
2023-05-09T15:51:35.904Z,3.10
2023-05-09T15:56:37.550Z,2.70
2023-05-09T16:01:39.230Z,2.55
2023-05-09T16:06:41.930Z,2.10
2023-05-09T16:11:43.704Z,2.58
2023-05-09T16:16:47.129Z,3.10
2023-05-09T16:21:48.873Z,1.60
2023-05-09T16:26:50.675Z,2.70
2023-05-09T16:31:52.581Z,2.60
2023-05-09T16:36:54.329Z,2.83
2023-05-09T16:41:57.014Z,2.90
2023-05-09T16:46:58.728Z,2.80
2023-05-09T16:52:00.499Z,2.42
2023-05-09T16:57:03.308Z,2.22
2023-05-09T17:02:05.061Z,3.20
2023-05-09T17:07:06.711Z,2.40
2023-05-09T17:12:14.702Z,2.53
2023-05-09T17:17:17.741Z,2.85
2023-05-09T17:22:19.395Z,2.55
2023-05-09T17:27:21.011Z,3.38
2023-05-09T17:32:22.745Z,2.92
2023-05-09T17:37:24.462Z,2.42
2023-05-09T17:42:26.231Z,1.50
2023-05-09T17:47:28.871Z,1.63
2023-05-09T17:52:30.610Z,1.52
2023-05-09T17:57:32.294Z,2.17
2023-05-09T18:02:34.001Z,1.45
2023-05-09T18:07:35.912Z,2.80
2023-05-09T18:12:37.827Z,2.55
2023-05-09T18:17:39.866Z,2.10
2023-05-09T18:22:41.546Z,1.67
2023-05-09T18:27:43.198Z,2.55
2023-05-09T18:32:44.870Z,2.83
2023-05-09T18:37:46.785Z,2.33
2023-05-09T18:42:48.733Z,2.58
2023-05-09T18:47:50.462Z,2.67
2023-05-09T18:52:52.210Z,2.25
2023-05-09T18:57:54.116Z,2.08
2023-05-09T19:02:55.882Z,1.70
2023-05-09T19:07:57.656Z,3.10
2023-05-09T19:12:59.443Z,2.50
2023-05-09T19:18:02.056Z,2.65
2023-05-09T19:23:04.330Z,2.63
2023-05-09T19:28:06.322Z,2.65
2023-05-09T19:33:08.081Z,2.67
2023-05-09T19:38:11.903Z,2.92
2023-05-09T19:43:14.180Z,2.90
2023-05-09T19:48:16.023Z,2.05
2023-05-09T19:53:17.810Z,2.78
2023-05-09T19:58:19.995Z,2.67
2023-05-09T20:03:21.833Z,5.70
2023-05-09T20:08:25.474Z,4.35
2023-05-09T20:13:27.774Z,1.90
2023-05-09T20:18:33.234Z,2.58
2023-05-09T20:23:35.316Z,3.10
2023-05-09T20:28:38.122Z,3.85
2023-05-09T20:33:40.951Z,2.95
2023-05-09T20:38:42.602Z,2.65
2023-05-09T20:43:44.550Z,2.55
2023-05-09T20:48:46.957Z,2.67
2023-05-09T20:53:48.778Z,2.92
2023-05-09T20:58:50.527Z,3.15
2023-05-09T21:03:52.247Z,3.50
2023-05-09T21:08:53.895Z,2.38
2023-05-09T21:13:55.684Z,2.35
2023-05-09T21:18:58.658Z,2.17
2023-05-09T21:24:03.320Z,2.70
2023-05-09T21:29:05.328Z,2.70
2023-05-09T21:34:10.311Z,2.60
2023-05-09T21:39:12.135Z,2.72
2023-05-09T21:44:13.847Z,2.70
2023-05-09T21:49:21.577Z,2.25
2023-05-09T21:54:23.475Z,2.15
2023-05-09T21:59:26.431Z,3.22
2023-05-09T22:04:28.286Z,2.05
2023-05-09T22:09:29.930Z,2.53
2023-05-09T22:14:33.479Z,1.88
2023-05-09T22:19:38.275Z,2.65
2023-05-09T22:24:42.783Z,2.38
2023-05-09T22:29:45.698Z,2.08
2023-05-09T22:34:48.184Z,2.47
2023-05-09T22:39:49.927Z,2.83
2023-05-09T22:44:52.792Z,2.35
2023-05-09T22:49:54.578Z,2.10
2023-05-09T22:54:56.355Z,2.35
2023-05-09T22:59:58.031Z,2.60
2023-05-09T23:33:04.221Z,2.13
2023-05-09T23:38:06.323Z,1.35
2023-05-09T23:43:07.963Z,2.40
2023-05-09T23:48:09.862Z,2.10
2023-05-09T23:53:12.118Z,2.15
2023-05-09T23:58:14.172Z,1.95
